Time;durP1;ratioP1;P1;durP2;ratioP2;P2;SDS_P1;SDS_P2;PMS_P1;PMS_P2;Temp;Humidity;BMP_temperature;BMP_pressure;BME280_temperature;BME280_humidity;BME280_pressure;Samples;Min_cycle;Max_cycle;Signal;HPM_P1;HPM_P2
2022/10/25 00:00:28;;;;;;;1.50;1.40;;;12.30;99.90;;;;;;5010638;28;21124;-53
2022/10/25 00:02:54;;;;;;;4.40;1.67;;;12.10;99.90;;;;;;5012431;28;20610;-53
2022/10/25 00:05:20;;;;;;;2.00;1.60;;;12.20;99.90;;;;;;5013814;28;20822;-53
2022/10/25 00:07:46;;;;;;;1.83;1.50;;;12.30;99.90;;;;;;5008249;28;20183;-53
2022/10/25 00:10:12;;;;;;;2.53;1.20;;;12.20;99.90;;;;;;5011211;28;20582;-52
2022/10/25 00:12:42;;;;;;;3.00;1.63;;;12.00;99.90;;;;;;5008412;28;20190;-52
2022/10/25 00:15:09;;;;;;;1.75;1.65;;;12.20;99.90;;;;;;5011572;28;20218;-52
2022/10/25 00:17:35;;;;;;;1.73;1.63;;;12.10;99.90;;;;;;5010613;28;20183;-52
2022/10/25 00:20:00;;;;;;;1.70;1.50;;;12.10;99.90;;;;;;5008358;28;20201;-52
2022/10/25 00:22:28;;;;;;;2.60;1.30;;;12.40;99.90;;;;;;5007832;28;20837;-53
2022/10/25 00:24:53;;;;;;;3.33;1.67;;;12.40;99.90;;;;;;5010653;28;20212;-53
2022/10/25 00:27:19;;;;;;;2.40;1.70;;;12.10;99.90;;;;;;5009776;28;20198;-52
2022/10/25 00:29:44;;;;;;;4.33;2.00;;;12.10;99.90;;;;;;5010575;28;20193;-52
2022/10/25 00:32:10;;;;;;;2.73;1.60;;;12.30;99.90;;;;;;5013321;28;20245;-53
2022/10/25 00:34:38;;;;;;;5.33;1.63;;;12.20;99.90;;;;;;5010811;28;20304;-52
2022/10/25 00:37:04;;;;;;;3.35;1.45;;;12.10;99.90;;;;;;5009736;28;20183;-52
2022/10/25 00:39:29;;;;;;;2.90;1.60;;;12.30;99.90;;;;;;5012764;28;20201;-51
2022/10/25 00:41:56;;;;;;;2.83;1.20;;;12.20;99.90;;;;;;5010237;28;20215;-53
2022/10/25 00:44:39;;;;;;;3.38;1.40;;;11.90;99.90;;;;;;5007764;28;20249;-52
2022/10/25 00:47:20;;;;;;;1.88;1.75;;;12.00;99.90;;;;;;5010273;28;20191;-52
2022/10/25 00:49:53;;;;;;;2.08;1.50;;;12.00;99.90;;;;;;5010823;28;20217;-52
2022/10/25 00:52:19;;;;;;;1.67;1.40;;;11.80;99.90;;;;;;5007873;28;20253;-52
2022/10/25 00:54:49;;;;;;;3.10;1.70;;;12.10;99.90;;;;;;5008312;28;20631;-51
2022/10/25 00:57:18;;;;;;;3.15;1.52;;;11.80;99.90;;;;;;5012677;28;20449;-52
2022/10/25 00:59:45;;;;;;;1.73;1.50;;;11.80;99.90;;;;;;5009065;28;20190;-52
2022/10/25 01:02:13;;;;;;;1.65;1.55;;;11.90;99.90;;;;;;5010806;28;20186;-52
2022/10/25 01:04:39;;;;;;;2.40;1.80;;;11.90;99.90;;;;;;4998269;28;20217;-53
2022/10/25 01:07:05;;;;;;;2.75;1.90;;;11.80;99.90;;;;;;5012070;28;20639;-53
2022/10/25 01:09:34;;;;;;;2.30;1.37;;;11.90;99.90;;;;;;5010484;28;20194;-52
2022/10/25 01:11:59;;;;;;;4.40;1.65;;;11.80;99.90;;;;;;5011715;28;20268;-52
2022/10/25 01:14:31;;;;;;;1.97;1.63;;;12.00;99.90;;;;;;5012268;28;20310;-52
2022/10/25 01:17:11;;;;;;;2.20;1.30;;;12.10;99.90;;;;;;5008807;28;20724;-52
2022/10/25 01:20:05;;;;;;;1.50;1.30;;;12.10;99.90;;;;;;5009198;28;20232;-51
2022/10/25 01:23:05;;;;;;;3.67;1.80;;;11.80;99.90;;;;;;5011575;28;20639;-53
2022/10/25 01:25:57;;;;;;;2.28;1.10;;;11.90;99.90;;;;;;5006650;28;20672;-51
2022/10/25 01:28:32;;;;;;;2.83;1.58;;;11.90;99.90;;;;;;5008973;28;20233;-52
2022/10/25 01:31:21;;;;;;;2.65;1.83;;;11.80;99.90;;;;;;5011618;28;20648;-52
2022/10/25 01:34:08;;;;;;;1.83;1.48;;;11.80;99.90;;;;;;5008104;28;20218;-52
2022/10/25 01:36:39;;;;;;;1.95;1.70;;;11.80;99.90;;;;;;5010554;28;20191;-52
2022/10/25 01:39:25;;;;;;;4.05;1.60;;;11.70;99.90;;;;;;5005188;28;20193;-53
2022/10/25 01:42:04;;;;;;;2.58;1.70;;;11.90;99.90;;;;;;5008702;28;20199;-52
2022/10/25 01:44:39;;;;;;;2.25;2.00;;;11.70;99.90;;;;;;5007142;28;20301;-52
2022/10/25 01:47:09;;;;;;;11.30;2.38;;;11.90;99.90;;;;;;5007568;28;20654;-53
2022/10/25 01:49:50;;;;;;;2.65;1.50;;;11.90;99.90;;;;;;5007622;28;20568;-53
2022/10/25 01:52:23;;;;;;;3.13;1.90;;;11.80;99.90;;;;;;5002525;28;20221;-52
2022/10/25 01:54:50;;;;;;;2.42;1.90;;;11.90;99.90;;;;;;5009834;28;20301;-52
2022/10/25 01:57:31;;;;;;;5.53;2.38;;;11.80;99.90;;;;;;5011037;28;20187;-52
2022/10/25 01:59:56;;;;;;;3.67;1.77;;;11.90;99.90;;;;;;5013942;28;20217;-51
2022/10/25 02:02:32;;;;;;;5.23;1.80;;;12.00;99.90;;;;;;5014581;28;20674;-53
2022/10/25 02:04:57;;;;;;;2.88;1.83;;;12.00;99.90;;;;;;5010616;28;20210;-52
2022/10/25 02:07:46;;;;;;;5.67;1.87;;;11.70;99.90;;;;;;5007367;28;20194;-52
2022/10/25 02:10:21;;;;;;;2.28;2.08;;;11.80;99.90;;;;;;5011983;28;20243;-51
2022/10/25 02:13:07;;;;;;;3.25;1.70;;;12.00;99.90;;;;;;5013542;28;20270;-52
2022/10/25 02:15:55;;;;;;;2.03;1.67;;;11.90;99.90;;;;;;5012251;28;20587;-52
2022/10/25 02:18:28;;;;;;;2.28;2.03;;;11.90;99.90;;;;;;5011554;28;20185;-52
2022/10/25 02:20:55;;;;;;;2.45;1.98;;;12.00;99.90;;;;;;5012945;28;20262;-52
2022/10/25 02:23:23;;;;;;;2.95;2.55;;;11.80;99.90;;;;;;5004261;28;20191;-52
2022/10/25 02:25:50;;;;;;;3.95;1.83;;;11.80;99.90;;;;;;5013149;28;20269;-52
2022/10/25 02:28:19;;;;;;;2.90;2.03;;;11.90;99.90;;;;;;5008748;28;20253;-53
2022/10/25 02:30:45;;;;;;;3.03;1.67;;;11.70;99.90;;;;;;5010822;28;20202;-53
2022/10/25 02:33:11;;;;;;;2.90;2.00;;;12.00;99.90;;;;;;5013141;28;20173;-51
2022/10/25 02:35:37;;;;;;;2.45;2.13;;;11.90;99.90;;;;;;5002880;28;20216;-52
2022/10/25 02:38:03;;;;;;;2.00;1.80;;;11.70;99.90;;;;;;5008902;28;20217;-52
2022/10/25 02:40:29;;;;;;;2.50;1.57;;;11.40;99.90;;;;;;5011719;28;20227;-52
2022/10/25 02:42:55;;;;;;;4.90;2.07;;;11.90;99.90;;;;;;5015555;28;20475;-52
2022/10/25 02:45:21;;;;;;;3.22;1.95;;;12.20;99.90;;;;;;5011010;28;22557;-52
2022/10/25 02:47:47;;;;;;;2.40;2.05;;;12.00;99.90;;;;;;5012968;28;20190;-53
2022/10/25 02:50:13;;;;;;;3.40;2.30;;;11.90;99.90;;;;;;4995316;28;20201;-53
2022/10/25 02:52:38;;;;;;;2.10;1.90;;;12.00;99.90;;;;;;5011324;28;20261;-52
2022/10/25 02:55:04;;;;;;;2.70;1.83;;;12.00;99.90;;;;;;5012500;28;20272;-52
2022/10/25 02:57:36;;;;;;;3.75;2.00;;;11.90;99.90;;;;;;5012594;28;20186;-53
2022/10/25 03:00:06;;;;;;;3.25;2.05;;;11.80;99.90;;;;;;5010439;28;20240;-53
2022/10/25 03:02:32;;;;;;;2.05;1.80;;;12.00;99.90;;;;;;5005962;28;20651;-52
2022/10/25 03:04:57;;;;;;;2.00;1.90;;;12.20;99.90;;;;;;4996346;28;20213;-53
2022/10/25 03:07:23;;;;;;;3.03;2.17;;;12.20;99.90;;;;;;5006924;28;20204;-53
2022/10/25 03:09:49;;;;;;;3.00;1.73;;;12.00;99.90;;;;;;5010736;28;20201;-52
2022/10/25 03:12:14;;;;;;;6.20;2.03;;;11.90;99.90;;;;;;5012480;28;20191;-52
2022/10/25 03:14:40;;;;;;;2.27;1.87;;;12.20;99.90;;;;;;5012256;28;20630;-52
2022/10/25 03:17:07;;;;;;;3.83;2.53;;;11.90;99.90;;;;;;5007657;28;20187;-53
2022/10/25 03:19:32;;;;;;;2.50;1.92;;;11.80;99.90;;;;;;4998399;28;20226;-53
2022/10/25 03:21:58;;;;;;;3.37;1.93;;;11.90;99.90;;;;;;5012943;28;20221;-52
2022/10/25 03:24:23;;;;;;;3.00;1.97;;;11.80;99.90;;;;;;5010894;28;20264;-53
2022/10/25 03:26:49;;;;;;;3.27;2.40;;;11.90;99.90;;;;;;5011832;28;20210;-52
2022/10/25 03:29:15;;;;;;;6.00;2.33;;;11.60;99.90;;;;;;5012900;28;20241;-53
2022/10/25 03:31:41;;;;;;;2.58;2.10;;;11.80;99.90;;;;;;5005075;28;20257;-53
2022/10/25 03:34:06;;;;;;;5.27;2.33;;;11.80;99.90;;;;;;5013095;28;20222;-53
2022/10/25 03:36:32;;;;;;;5.80;2.13;;;11.80;99.90;;;;;;5014402;28;20250;-52
2022/10/25 03:38:59;;;;;;;2.70;1.80;;;11.60;99.90;;;;;;5012201;28;20227;-52
2022/10/25 03:41:25;;;;;;;4.10;2.15;;;11.80;99.90;;;;;;5011527;28;20232;-53
2022/10/25 03:43:50;;;;;;;3.20;2.53;;;11.80;99.90;;;;;;5013036;28;20222;-52
2022/10/25 03:46:16;;;;;;;2.27;2.07;;;12.10;99.90;;;;;;5008577;28;20215;-52
2022/10/25 03:48:42;;;;;;;2.97;2.33;;;11.90;99.90;;;;;;5010085;28;20280;-52
2022/10/25 03:51:07;;;;;;;4.53;2.00;;;11.80;99.90;;;;;;5008472;28;20196;-53
2022/10/25 03:53:33;;;;;;;3.40;2.20;;;12.00;99.90;;;;;;5008020;28;20618;-51
2022/10/25 03:55:59;;;;;;;4.50;2.60;;;11.90;99.90;;;;;;5011822;28;20183;-52
2022/10/25 03:58:24;;;;;;;3.37;2.50;;;11.90;99.90;;;;;;4994138;28;20190;-52
2022/10/25 04:00:50;;;;;;;4.13;2.40;;;11.90;99.90;;;;;;5003805;28;20531;-52
2022/10/25 04:03:15;;;;;;;4.57;2.47;;;11.90;99.90;;;;;;5013980;28;20190;-51
2022/10/25 04:05:42;;;;;;;3.97;2.10;;;12.10;99.90;;;;;;5008795;28;20201;-53
2022/10/25 04:08:07;;;;;;;3.20;2.00;;;12.00;99.90;;;;;;5004453;28;20194;-52
2022/10/25 04:10:33;;;;;;;2.63;2.40;;;11.60;99.90;;;;;;5011225;28;20191;-53
2022/10/25 04:12:59;;;;;;;2.47;2.13;;;12.00;99.90;;;;;;5011811;28;20214;-53
2022/10/25 04:15:24;;;;;;;5.07;2.50;;;12.00;99.90;;;;;;5008663;28;20850;-51
2022/10/25 04:17:51;;;;;;;7.83;2.73;;;11.70;99.90;;;;;;5009475;28;20652;-52
2022/10/25 04:20:17;;;;;;;4.93;2.63;;;11.80;99.90;;;;;;4993451;28;20201;-52
2022/10/25 04:22:43;;;;;;;4.20;2.75;;;11.70;99.90;;;;;;5005295;28;20190;-51
2022/10/25 04:25:08;;;;;;;4.30;2.20;;;11.80;99.90;;;;;;5010735;28;20205;-53
2022/10/25 04:27:34;;;;;;;4.77;2.53;;;11.80;99.90;;;;;;5009736;28;20709;-53
2022/10/25 04:30:00;;;;;;;2.53;2.33;;;11.80;99.90;;;;;;5011305;28;20194;-53
2022/10/25 04:32:25;;;;;;;3.87;2.40;;;12.00;99.90;;;;;;5005213;28;20204;-53
2022/10/25 04:34:51;;;;;;;2.93;2.50;;;11.70;99.90;;;;;;5010333;28;20241;-53
2022/10/25 04:37:17;;;;;;;3.23;2.57;;;11.90;99.90;;;;;;5010205;28;20453;-52
2022/10/25 04:39:43;;;;;;;3.13;2.40;;;11.90;99.90;;;;;;5010360;28;20220;-51
2022/10/25 04:42:08;;;;;;;3.63;2.40;;;11.90;99.90;;;;;;5007845;28;20206;-52
2022/10/25 04:44:34;;;;;;;5.10;3.00;;;11.90;99.90;;;;;;5008417;28;20218;-51
2022/10/25 04:46:59;;;;;;;2.77;2.40;;;12.00;99.90;;;;;;5010374;28;20191;-52
2022/10/25 04:49:25;;;;;;;3.03;2.80;;;11.90;99.90;;;;;;5010305;28;20686;-52
2022/10/25 04:51:50;;;;;;;4.53;2.70;;;11.70;99.90;;;;;;5010158;28;20611;-52
2022/10/25 04:54:16;;;;;;;4.17;2.30;;;12.00;99.90;;;;;;5007020;28;20222;-51
2022/10/25 04:56:41;;;;;;;5.37;2.57;;;12.00;99.90;;;;;;4993247;28;20214;-52
2022/10/25 04:59:08;;;;;;;3.20;2.90;;;12.30;99.90;;;;;;5007856;28;20199;-52
2022/10/25 05:01:34;;;;;;;3.80;2.38;;;11.80;99.90;;;;;;5008686;28;20219;-52
2022/10/25 05:03:59;;;;;;;2.80;2.60;;;11.80;99.90;;;;;;5011646;28;20246;-52
2022/10/25 05:06:26;;;;;;;4.30;2.80;;;12.00;99.90;;;;;;5001374;28;20198;-51
2022/10/25 05:08:53;;;;;;;4.95;2.80;;;12.00;99.90;;;;;;5011603;28;20280;-51
2022/10/25 05:11:22;;;;;;;5.85;2.95;;;11.70;99.90;;;;;;5013656;28;20547;-50
2022/10/25 05:13:48;;;;;;;3.15;2.80;;;11.80;99.90;;;;;;5011409;28;20204;-51
2022/10/25 05:16:19;;;;;;;5.17;2.70;;;11.80;99.90;;;;;;5007037;28;20190;-51
2022/10/25 05:18:45;;;;;;;3.20;2.70;;;11.70;99.90;;;;;;5002042;28;20193;-52
2022/10/25 05:21:12;;;;;;;4.25;2.83;;;11.70;99.90;;;;;;5009019;28;20528;-52
2022/10/25 05:23:38;;;;;;;4.05;2.90;;;11.80;99.90;;;;;;5006314;28;20187;-53
2022/10/25 05:26:13;;;;;;;4.10;2.63;;;11.90;99.90;;;;;;4990309;28;20190;-52
2022/10/25 05:28:40;;;;;;;5.78;3.97;;;11.90;99.90;;;;;;5010112;28;20342;-51
2022/10/25 05:31:14;;;;;;;4.03;3.17;;;11.70;99.90;;;;;;5007645;28;20221;-53
2022/10/25 05:33:40;;;;;;;4.55;2.90;;;11.90;99.90;;;;;;5011698;28;20189;-52
2022/10/25 05:36:06;;;;;;;3.63;2.45;;;11.90;99.90;;;;;;5014834;28;20189;-52
2022/10/25 05:38:32;;;;;;;3.35;2.95;;;11.70;99.90;;;;;;5008676;28;20281;-53
2022/10/25 05:40:59;;;;;;;5.72;3.05;;;11.90;99.90;;;;;;5014262;28;20189;-53
2022/10/25 05:43:25;;;;;;;4.03;3.28;;;12.00;99.90;;;;;;5009149;28;20210;-53
2022/10/25 05:45:59;;;;;;;4.45;3.45;;;11.90;99.90;;;;;;5016281;28;20225;-52
2022/10/25 05:48:25;;;;;;;3.97;3.00;;;11.90;99.90;;;;;;5011162;28;20668;-50
2022/10/25 05:50:52;;;;;;;5.60;3.70;;;12.00;99.90;;;;;;5009910;28;20322;-52
2022/10/25 05:53:18;;;;;;;5.70;2.90;;;12.00;99.90;;;;;;5007118;28;20198;-56
2022/10/25 05:55:44;;;;;;;4.43;2.93;;;12.10;99.90;;;;;;5007948;28;20561;-55
2022/10/25 05:58:09;;;;;;;5.13;2.93;;;11.90;99.90;;;;;;5011386;28;20221;-54
2022/10/25 06:00:35;;;;;;;3.03;2.73;;;12.00;99.90;;;;;;4994867;28;20195;-53
2022/10/25 06:03:01;;;;;;;5.85;3.25;;;11.90;99.90;;;;;;5007469;28;20217;-57
2022/10/25 06:05:27;;;;;;;5.53;3.03;;;11.90;99.90;;;;;;5011334;28;20214;-53
2022/10/25 06:07:52;;;;;;;3.67;3.33;;;11.80;99.90;;;;;;4992978;28;20476;-60
2022/10/25 06:10:18;;;;;;;3.20;2.83;;;12.00;99.90;;;;;;5009839;28;20209;-59
2022/10/25 06:12:44;;;;;;;5.80;4.07;;;12.20;99.90;;;;;;5009335;28;20202;-59
2022/10/25 06:15:09;;;;;;;5.60;2.77;;;12.00;99.90;;;;;;5009924;28;20305;-57
2022/10/25 06:17:35;;;;;;;6.03;2.73;;;11.90;99.90;;;;;;5009970;28;20564;-57
2022/10/25 06:20:01;;;;;;;4.20;2.47;;;12.20;99.90;;;;;;5009850;28;20244;-57
2022/10/25 06:22:26;;;;;;;4.80;3.00;;;12.00;99.90;;;;;;5006967;28;20230;-53
2022/10/25 06:24:52;;;;;;;3.55;3.10;;;12.20;99.90;;;;;;5013439;28;20582;-53
2022/10/25 06:27:18;;;;;;;3.23;2.40;;;12.10;99.90;;;;;;5007793;28;20250;-60
2022/10/25 06:29:43;;;;;;;4.63;3.07;;;12.00;99.90;;;;;;5014870;28;20195;-55
2022/10/25 06:32:09;;;;;;;3.90;3.00;;;12.00;99.90;;;;;;5007379;28;20252;-55
2022/10/25 06:34:34;;;;;;;5.50;4.50;;;12.30;99.90;;;;;;5011888;28;20225;-56
2022/10/25 06:37:00;;;;;;;4.40;3.97;;;12.20;99.90;;;;;;5009504;28;20176;-56
2022/10/25 06:39:26;;;;;;;3.42;3.13;;;12.30;99.90;;;;;;5011277;28;20186;-55
2022/10/25 06:41:52;;;;;;;4.40;3.23;;;12.30;99.90;;;;;;5013682;28;20195;-55
2022/10/25 06:44:17;;;;;;;2.93;2.53;;;12.20;99.90;;;;;;5009945;28;20310;-56
2022/10/25 06:46:43;;;;;;;5.20;3.20;;;12.00;99.90;;;;;;4981617;28;20195;-54
2022/10/25 06:49:09;;;;;;;3.42;3.13;;;12.10;99.90;;;;;;5005094;28;20223;-55
2022/10/25 06:51:35;;;;;;;3.63;3.33;;;12.10;99.90;;;;;;5012503;28;20780;-55
2022/10/25 06:54:04;;;;;;;8.97;7.83;;;12.30;99.90;;;;;;4991079;28;20661;-55
2022/10/25 06:56:30;;;;;;;8.32;4.88;;;12.40;99.90;;;;;;5009960;28;20189;-56
2022/10/25 06:58:56;;;;;;;4.35;3.20;;;12.30;99.90;;;;;;5015737;28;20191;-53
2022/10/25 07:01:23;;;;;;;7.43;2.80;;;12.20;99.90;;;;;;5016427;28;20217;-56
2022/10/25 07:03:49;;;;;;;6.65;3.15;;;12.30;99.90;;;;;;5008005;28;20207;-53
2022/10/25 07:06:17;;;;;;;5.80;3.10;;;12.30;99.90;;;;;;4992910;28;20179;-54
2022/10/25 07:08:46;;;;;;;5.25;2.80;;;12.10;99.90;;;;;;5014642;28;20627;-54
2022/10/25 07:11:16;;;;;;;7.55;3.60;;;12.10;99.90;;;;;;5009903;28;20187;-55
2022/10/25 07:13:42;;;;;;;4.70;3.15;;;12.30;99.90;;;;;;5010296;28;20183;-55
2022/10/25 07:16:10;;;;;;;5.43;3.20;;;12.30;99.90;;;;;;5009205;28;20190;-56
2022/10/25 07:18:37;;;;;;;2.67;2.40;;;12.30;99.90;;;;;;4999122;28;20191;-55
2022/10/25 07:21:09;;;;;;;4.25;2.78;;;12.40;99.90;;;;;;5011184;28;20201;-55
2022/10/25 07:23:40;;;;;;;5.00;2.65;;;12.50;99.90;;;;;;5010651;28;20175;-55
2022/10/25 07:26:11;;;;;;;2.75;2.30;;;12.70;99.90;;;;;;5003072;28;20626;-55
2022/10/25 07:28:38;;;;;;;3.65;2.85;;;12.80;99.90;;;;;;5012303;28;20190;-57
2022/10/25 07:31:05;;;;;;;5.57;3.05;;;12.80;99.90;;;;;;5006301;28;20544;-60
2022/10/25 07:33:31;;;;;;;4.45;2.78;;;13.00;99.90;;;;;;5015604;28;20179;-56
2022/10/25 07:35:57;;;;;;;6.05;2.63;;;13.10;99.90;;;;;;5010162;28;20242;-57
2022/10/25 07:38:23;;;;;;;2.60;2.37;;;12.90;99.90;;;;;;5007731;28;20268;-57
2022/10/25 07:40:57;;;;;;;4.97;2.67;;;13.40;99.90;;;;;;4990801;28;20800;-57
2022/10/25 07:43:24;;;;;;;2.15;1.95;;;13.50;99.90;;;;;;5013813;28;20182;-56
2022/10/25 07:45:50;;;;;;;4.88;2.15;;;13.40;99.90;;;;;;5011060;28;20215;-55
2022/10/25 07:48:16;;;;;;;4.40;2.30;;;13.60;99.90;;;;;;5002248;28;20700;-56
2022/10/25 07:50:42;;;;;;;2.13;1.60;;;13.50;99.90;;;;;;5005811;28;20191;-56
2022/10/25 07:53:07;;;;;;;5.70;3.20;;;13.70;99.90;;;;;;5004324;28;20556;-56
2022/10/25 07:55:33;;;;;;;3.37;2.20;;;14.00;99.90;;;;;;5012795;28;20676;-55
2022/10/25 07:58:20;;;;;;;4.60;2.40;;;13.80;99.90;;;;;;5011359;28;20210;-56
2022/10/25 08:00:46;;;;;;;7.07;2.47;;;14.00;99.90;;;;;;5002338;28;20188;-56
2022/10/25 08:03:13;;;;;;;2.10;1.90;;;14.00;99.90;;;;;;5012333;28;20183;-55
2022/10/25 08:05:39;;;;;;;3.17;2.03;;;14.10;99.90;;;;;;5010283;28;20306;-56
2022/10/25 08:08:05;;;;;;;2.75;2.50;;;14.10;99.90;;;;;;5010682;28;20179;-55
2022/10/25 08:10:31;;;;;;;3.30;2.83;;;14.30;99.90;;;;;;5011143;28;20619;-55
2022/10/25 08:12:57;;;;;;;3.27;2.97;;;14.40;99.90;;;;;;5009169;28;20233;-57
2022/10/25 08:15:23;;;;;;;4.87;2.47;;;14.60;99.90;;;;;;5011539;28;20710;-58
2022/10/25 08:17:57;;;;;;;3.22;1.80;;;14.40;99.90;;;;;;5003911;28;20286;-60
2022/10/25 08:20:22;;;;;;;4.65;2.03;;;14.60;99.90;;;;;;5013359;28;20225;-59
2022/10/25 08:22:49;;;;;;;5.05;2.08;;;14.90;99.90;;;;;;5008973;28;20186;-59
2022/10/25 08:25:14;;;;;;;3.77;3.40;;;14.90;99.90;;;;;;5014478;28;20203;-61
2022/10/25 08:27:40;;;;;;;5.70;2.37;;;15.10;99.90;;;;;;5010766;28;20227;-57
2022/10/25 08:30:07;;;;;;;3.78;2.17;;;15.00;99.90;;;;;;5015198;28;20201;-59
2022/10/25 08:32:37;;;;;;;2.78;2.15;;;15.10;99.90;;;;;;4989879;28;20187;-59
2022/10/25 08:35:03;;;;;;;3.55;1.83;;;15.40;99.90;;;;;;5010643;28;20676;-60
2022/10/25 08:37:28;;;;;;;1.75;1.40;;;15.50;99.90;;;;;;5012773;28;20207;-58
2022/10/25 08:39:54;;;;;;;3.40;1.77;;;15.40;99.90;;;;;;5017579;28;22450;-54
2022/10/25 08:42:32;;;;;;;3.03;2.73;;;15.30;99.90;;;;;;5006652;28;20191;-55
2022/10/25 08:45:09;;;;;;;2.58;2.30;;;15.70;99.90;;;;;;5012630;28;20203;-56
2022/10/25 08:47:40;;;;;;;4.13;3.00;;;15.70;99.90;;;;;;5010429;28;20245;-54
2022/10/25 08:50:21;;;;;;;3.47;1.70;;;16.10;99.90;;;;;;4998024;28;20214;-54
2022/10/25 08:52:52;;;;;;;3.38;1.95;;;15.90;99.90;;;;;;5007143;28;20987;-53
2022/10/25 08:55:40;;;;;;;2.35;2.13;;;16.20;99.90;;;;;;4994491;28;20214;-61
2022/10/25 08:58:14;;;;;;;4.45;2.00;;;16.10;99.90;;;;;;5005628;28;20281;-55
2022/10/25 09:00:43;;;;;;;2.95;2.30;;;16.50;99.90;;;;;;5007530;28;20198;-56
2022/10/25 09:03:36;;;;;;;3.90;2.00;;;16.40;99.90;;;;;;5006459;28;20188;-55
2022/10/25 09:06:37;;;;;;;2.67;1.67;;;16.70;99.90;;;;;;4998929;28;20195;-55
2022/10/25 09:09:17;;;;;;;1.55;1.40;;;16.80;99.90;;;;;;5011004;28;20545;-55
2022/10/25 09:11:58;;;;;;;2.35;1.60;;;17.30;99.90;;;;;;5013421;28;20273;-56
2022/10/25 09:14:31;;;;;;;4.57;1.85;;;17.40;99.90;;;;;;5014268;28;20640;-54
2022/10/25 09:17:21;;;;;;;2.42;1.15;;;17.40;99.90;;;;;;5009705;28;20189;-54
2022/10/25 09:19:55;;;;;;;1.70;1.30;;;17.80;99.90;;;;;;5015013;28;20268;-55
2022/10/25 09:22:30;;;;;;;2.80;1.63;;;17.90;99.90;;;;;;5004822;28;20621;-54
2022/10/25 09:25:13;;;;;;;5.90;2.03;;;18.10;99.90;;;;;;5003424;28;20248;-53
2022/10/25 09:27:50;;;;;;;2.55;1.75;;;18.20;99.90;;;;;;5017456;28;20193;-54
2022/10/25 09:30:16;;;;;;;5.25;1.50;;;18.30;99.90;;;;;;5010375;28;20194;-54
2022/10/25 09:32:48;;;;;;;2.47;1.30;;;18.70;99.90;;;;;;5010134;28;20191;-53
2022/10/25 09:35:19;;;;;;;3.75;1.50;;;18.70;99.90;;;;;;5012292;28;20636;-56
2022/10/25 09:37:50;;;;;;;6.45;3.38;;;18.70;99.90;;;;;;5010110;28;20199;-57
2022/10/25 09:40:24;;;;;;;5.53;3.75;;;18.60;99.90;;;;;;5011154;28;20260;-58
2022/10/25 09:43:02;;;;;;;1.92;1.33;;;18.50;99.90;;;;;;5013009;28;20186;-56
2022/10/25 09:45:33;;;;;;;3.17;1.52;;;18.50;99.90;;;;;;5013867;28;20680;-59
2022/10/25 09:48:14;;;;;;;3.92;1.50;;;18.60;99.90;;;;;;5003040;28;20183;-59
2022/10/25 09:50:59;;;;;;;3.05;1.33;;;18.40;99.90;;;;;;5019218;28;20952;-62
2022/10/25 09:53:25;;;;;;;2.55;1.30;;;18.40;99.90;;;;;;4989336;28;20198;-57
2022/10/25 09:55:56;;;;;;;2.17;1.67;;;18.60;99.90;;;;;;5011141;28;20292;-58
2022/10/25 09:58:25;;;;;;;3.38;1.50;;;18.50;99.90;;;;;;5020185;28;20700;-55
2022/10/25 10:00:53;;;;;;;8.27;2.03;;;18.50;99.90;;;;;;5005396;28;20287;-55
2022/10/25 10:03:20;;;;;;;3.05;1.27;;;18.60;99.90;;;;;;5017162;28;20663;-55
2022/10/25 10:06:11;;;;;;;1.13;1.02;;;18.50;99.90;;;;;;5013989;28;20257;-57
2022/10/25 10:08:44;;;;;;;2.72;1.77;;;18.60;99.90;;;;;;5015968;28;20190;-55
2022/10/25 10:11:16;;;;;;;1.42;1.33;;;18.80;99.90;;;;;;5009469;28;20187;-57
2022/10/25 10:14:02;;;;;;;2.08;1.30;;;19.10;99.90;;;;;;5013468;28;20195;-57
2022/10/25 10:16:37;;;;;;;3.33;1.50;;;19.30;99.90;;;;;;5012558;28;20206;-57
2022/10/25 10:19:21;;;;;;;2.22;1.45;;;19.70;99.90;;;;;;5003205;28;20187;-55
2022/10/25 10:22:08;;;;;;;4.18;2.17;;;20.20;98.60;;;;;;5002782;28;20670;-56
2022/10/25 10:24:41;;;;;;;2.00;1.70;;;20.80;97.10;;;;;;5000123;28;20218;-54
2022/10/25 10:27:11;;;;;;;3.57;2.00;;;21.40;96.30;;;;;;5006651;28;20647;-54
2022/10/25 10:30:17;;;;;;;2.00;1.37;;;21.90;95.60;;;;;;5011030;28;20425;-57
2022/10/25 10:32:43;;;;;;;2.22;1.30;;;21.90;94.50;;;;;;5002086;28;20441;-57
2022/10/25 10:35:26;;;;;;;2.80;1.40;;;21.80;95.20;;;;;;5013605;28;20271;-56
2022/10/25 10:37:53;;;;;;;2.90;1.47;;;21.70;94.80;;;;;;5010034;28;20183;-57
2022/10/25 10:40:19;;;;;;;1.80;1.40;;;22.00;94.40;;;;;;5002641;28;20542;-55
2022/10/25 10:42:46;;;;;;;6.23;1.90;;;21.80;94.90;;;;;;4995325;28;20473;-54
2022/10/25 10:45:17;;;;;;;4.90;2.37;;;22.90;93.70;;;;;;5012322;28;21105;-53
2022/10/25 10:47:49;;;;;;;1.50;1.30;;;23.30;92.80;;;;;;5005466;28;20499;-56
2022/10/25 10:50:24;;;;;;;4.40;2.27;;;23.40;91.80;;;;;;5010139;28;20930;-53
2022/10/25 10:53:00;;;;;;;1.80;1.63;;;22.90;92.40;;;;;;5006844;28;20457;-52
2022/10/25 10:55:30;;;;;;;4.80;1.70;;;22.40;92.40;;;;;;5020628;28;20970;-53
2022/10/25 10:58:08;;;;;;;1.83;1.30;;;22.30;93.00;;;;;;5009973;28;20541;-52
2022/10/25 11:00:34;;;;;;;3.30;1.57;;;22.30;93.10;;;;;;5015699;28;20456;-52
2022/10/25 11:03:00;;;;;;;2.20;1.03;;;22.40;92.90;;;;;;5017198;28;20525;-53
2022/10/25 11:05:30;;;;;;;2.50;1.30;;;22.60;92.90;;;;;;5013635;28;20560;-52
2022/10/25 11:07:59;;;;;;;2.23;1.10;;;22.70;92.20;;;;;;5014169;28;20190;-53
2022/10/25 11:10:34;;;;;;;5.03;2.30;;;23.00;91.60;;;;;;5017672;28;20892;-53
2022/10/25 11:13:07;;;;;;;1.43;1.00;;;23.40;91.70;;;;;;5014145;28;20437;-53
2022/10/25 11:15:43;;;;;;;5.23;1.23;;;24.10;90.50;;;;;;5002602;28;20980;-52
2022/10/25 11:18:11;;;;;;;3.03;1.40;;;24.60;89.60;;;;;;5013370;28;20531;-53
2022/10/25 11:20:51;;;;;;;2.37;1.40;;;24.90;87.40;;;;;;5014905;28;20445;-54
2022/10/25 11:23:41;;;;;;;2.87;1.40;;;26.00;84.90;;;;;;5013891;28;20473;-53
2022/10/25 11:26:38;;;;;;;2.77;1.10;;;25.80;82.30;;;;;;5010290;28;20436;-53
2022/10/25 11:29:45;;;;;;;1.63;1.30;;;24.80;83.80;;;;;;5005858;28;20441;-53
2022/10/25 11:32:42;;;;;;;2.77;1.20;;;23.80;86.50;;;;;;4962592;28;20442;-52
2022/10/25 11:35:26;;;;;;;3.03;1.50;;;23.00;87.50;;;;;;5009877;28;20481;-52
2022/10/25 11:37:56;;;;;;;1.83;1.23;;;22.30;90.40;;;;;;5004109;28;20443;-52
2022/10/25 11:40:41;;;;;;;2.50;1.48;;;22.00;91.20;;;;;;5025498;28;20424;-53
2022/10/25 11:43:50;;;;;;;5.17;3.33;;;21.80;91.60;;;;;;5010612;28;20192;-52
2022/10/25 11:46:15;;;;;;;1.90;1.50;;;21.60;92.10;;;;;;5002063;28;20540;-53
2022/10/25 11:49:30;;;;;;;2.10;1.23;;;21.60;92.20;;;;;;5010329;28;20703;-52
2022/10/25 11:51:58;;;;;;;3.20;1.10;;;21.70;91.90;;;;;;5009647;28;20214;-55
2022/10/25 11:54:43;;;;;;;1.30;1.10;;;21.50;92.30;;;;;;5002710;28;20221;-50
2022/10/25 11:57:26;;;;;;;5.72;1.05;;;21.40;91.80;;;;;;5007106;28;20187;-52
2022/10/25 12:00:16;;;;;;;13.48;2.40;;;21.30;92.30;;;;;;4997436;28;20181;-52
2022/10/25 12:02:55;;;;;;;1.25;1.00;;;21.20;92.60;;;;;;4999941;28;20657;-51
2022/10/25 12:05:27;;;;;;;2.45;1.15;;;21.20;92.90;;;;;;5009965;28;20219;-51
2022/10/25 12:07:53;;;;;;;3.60;1.20;;;21.10;92.70;;;;;;4995219;28;20191;-52
2022/10/25 12:10:33;;;;;;;2.00;1.40;;;21.10;92.20;;;;;;5014725;28;20201;-51
2022/10/25 12:13:16;;;;;;;1.92;1.00;;;21.10;92.50;;;;;;5022181;28;20190;-53
2022/10/25 12:15:46;;;;;;;1.67;0.90;;;21.40;92.50;;;;;;4992641;28;20273;-56
2022/10/25 12:18:45;;;;;;;1.75;1.17;;;20.80;92.90;;;;;;5009281;28;20254;-56
2022/10/25 12:21:19;;;;;;;3.10;1.05;;;20.70;93.00;;;;;;4999305;28;20268;-56
2022/10/25 12:23:48;;;;;;;1.75;1.25;;;20.60;93.00;;;;;;5006471;28;20194;-57
2022/10/25 12:26:24;;;;;;;1.10;1.00;;;20.60;93.10;;;;;;5010226;28;20191;-54
2022/10/25 12:28:50;;;;;;;1.40;1.08;;;20.70;92.10;;;;;;5008229;28;20194;-54
2022/10/25 12:31:22;;;;;;;2.50;1.30;;;20.70;92.50;;;;;;5005195;28;20202;-53
2022/10/25 12:34:08;;;;;;;1.70;1.15;;;20.80;92.00;;;;;;5003610;28;20482;-54
2022/10/25 12:37:00;;;;;;;2.10;1.67;;;20.90;92.40;;;;;;5004857;28;20265;-53
2022/10/25 12:39:43;;;;;;;1.90;1.20;;;20.90;92.30;;;;;;5004425;28;20222;-54
2022/10/25 12:42:40;;;;;;;2.25;1.17;;;20.90;92.30;;;;;;5007191;28;20544;-53
2022/10/25 12:45:30;;;;;;;4.10;3.55;;;20.90;91.80;;;;;;5009019;28;21015;-54
2022/10/25 12:48:30;;;;;;;1.70;1.20;;;21.00;92.60;;;;;;5005344;28;20196;-54
2022/10/25 12:51:18;;;;;;;2.75;1.40;;;21.00;92.30;;;;;;5008692;28;20221;-54
2022/10/25 12:54:20;;;;;;;2.85;1.45;;;21.00;92.50;;;;;;5006908;28;22295;-54
2022/10/25 12:57:24;;;;;;;2.45;1.10;;;21.20;92.70;;;;;;5014711;28;20210;-54
2022/10/25 13:00:08;;;;;;;2.33;1.10;;;21.30;91.80;;;;;;5015235;28;20175;-54
2022/10/25 13:02:53;;;;;;;1.80;1.17;;;21.10;91.80;;;;;;5009036;28;20175;-55
2022/10/25 13:05:39;;;;;;;1.90;1.10;;;21.50;90.90;;;;;;5000824;28;20211;-54
2022/10/25 13:08:08;;;;;;;2.57;1.50;;;21.60;90.30;;;;;;5006243;28;20270;-54
2022/10/25 13:10:41;;;;;;;2.17;1.30;;;21.70;91.00;;;;;;5009929;28;20572;-55